sensor_id;sensor_type;location;lat;lon;timestamp;P1;durP1;ratioP1;P2;durP2;ratioP2
40162;SDS011;25881;47.462;19.304;2023-02-26T00:00:06;9.90;;;4.80;;
40162;SDS011;25881;47.462;19.304;2023-02-26T00:02:35;6.68;;;5.13;;
40162;SDS011;25881;47.462;19.304;2023-02-26T00:05:02;8.75;;;5.53;;
40162;SDS011;25881;47.462;19.304;2023-02-26T00:07:27;9.27;;;5.03;;
40162;SDS011;25881;47.462;19.304;2023-02-26T00:09:53;6.32;;;4.00;;
40162;SDS011;25881;47.462;19.304;2023-02-26T00:12:18;6.60;;;4.05;;
40162;SDS011;25881;47.462;19.304;2023-02-26T00:14:44;7.18;;;4.63;;
40162;SDS011;25881;47.462;19.304;2023-02-26T00:19:37;8.07;;;5.28;;
40162;SDS011;25881;47.462;19.304;2023-02-26T00:22:03;7.20;;;5.10;;
40162;SDS011;25881;47.462;19.304;2023-02-26T00:24:28;6.85;;;4.70;;
40162;SDS011;25881;47.462;19.304;2023-02-26T00:26:53;6.50;;;4.93;;
40162;SDS011;25881;47.462;19.304;2023-02-26T00:29:19;7.93;;;5.00;;
40162;SDS011;25881;47.462;19.304;2023-02-26T00:31:44;6.60;;;4.97;;
40162;SDS011;25881;47.462;19.304;2023-02-26T00:34:10;8.95;;;4.60;;
40162;SDS011;25881;47.462;19.304;2023-02-26T00:41:32;8.50;;;5.05;;
40162;SDS011;25881;47.462;19.304;2023-02-26T00:43:58;7.65;;;4.63;;
40162;SDS011;25881;47.462;19.304;2023-02-26T00:56:56;6.50;;;4.28;;
40162;SDS011;25881;47.462;19.304;2023-02-26T00:59:22;6.25;;;4.30;;
40162;SDS011;25881;47.462;19.304;2023-02-26T01:01:47;6.35;;;4.28;;
40162;SDS011;25881;47.462;19.304;2023-02-26T01:04:14;6.55;;;4.65;;
40162;SDS011;25881;47.462;19.304;2023-02-26T01:06:44;5.63;;;4.10;;
40162;SDS011;25881;47.462;19.304;2023-02-26T01:09:13;7.88;;;4.88;;
40162;SDS011;25881;47.462;19.304;2023-02-26T01:11:39;6.30;;;4.53;;
40162;SDS011;25881;47.462;19.304;2023-02-26T01:14:05;5.63;;;4.30;;
40162;SDS011;25881;47.462;19.304;2023-02-26T01:16:33;6.72;;;4.75;;
40162;SDS011;25881;47.462;19.304;2023-02-26T01:19:04;5.55;;;3.83;;
40162;SDS011;25881;47.462;19.304;2023-02-26T01:21:37;7.45;;;4.22;;
40162;SDS011;25881;47.462;19.304;2023-02-26T01:24:05;6.97;;;4.63;;
40162;SDS011;25881;47.462;19.304;2023-02-26T01:26:30;6.10;;;4.05;;
40162;SDS011;25881;47.462;19.304;2023-02-26T01:28:55;6.75;;;4.68;;
40162;SDS011;25881;47.462;19.304;2023-02-26T01:34:10;6.50;;;4.55;;
40162;SDS011;25881;47.462;19.304;2023-02-26T01:36:40;8.02;;;4.82;;
40162;SDS011;25881;47.462;19.304;2023-02-26T01:39:15;7.28;;;4.63;;
40162;SDS011;25881;47.462;19.304;2023-02-26T01:41:42;6.32;;;4.68;;
40162;SDS011;25881;47.462;19.304;2023-02-26T01:49:23;6.93;;;5.13;;
40162;SDS011;25881;47.462;19.304;2023-02-26T01:51:59;8.15;;;5.03;;
40162;SDS011;25881;47.462;19.304;2023-02-26T01:54:32;8.30;;;5.07;;
40162;SDS011;25881;47.462;19.304;2023-02-26T01:59:29;6.70;;;4.90;;
40162;SDS011;25881;47.462;19.304;2023-02-26T02:01:55;6.22;;;4.65;;
40162;SDS011;25881;47.462;19.304;2023-02-26T02:04:20;6.10;;;4.68;;
40162;SDS011;25881;47.462;19.304;2023-02-26T02:06:46;6.95;;;4.82;;
40162;SDS011;25881;47.462;19.304;2023-02-26T02:09:12;7.47;;;4.90;;
40162;SDS011;25881;47.462;19.304;2023-02-26T02:12:20;8.25;;;4.82;;
40162;SDS011;25881;47.462;19.304;2023-02-26T02:14:29;6.50;;;4.78;;
40162;SDS011;25881;47.462;19.304;2023-02-26T02:17:00;7.72;;;4.80;;
40162;SDS011;25881;47.462;19.304;2023-02-26T02:25:04;7.03;;;4.20;;
40162;SDS011;25881;47.462;19.304;2023-02-26T02:27:38;7.05;;;4.63;;
40162;SDS011;25881;47.462;19.304;2023-02-26T02:35:05;6.27;;;4.00;;
40162;SDS011;25881;47.462;19.304;2023-02-26T02:40:11;6.95;;;4.53;;
40162;SDS011;25881;47.462;19.304;2023-02-26T02:42:38;6.05;;;4.25;;
40162;SDS011;25881;47.462;19.304;2023-02-26T02:45:08;7.57;;;4.22;;
40162;SDS011;25881;47.462;19.304;2023-02-26T02:47:35;6.65;;;4.38;;
40162;SDS011;25881;47.462;19.304;2023-02-26T02:55:25;7.72;;;4.75;;
40162;SDS011;25881;47.462;19.304;2023-02-26T02:57:52;6.97;;;4.93;;
40162;SDS011;25881;47.462;19.304;2023-02-26T03:00:20;6.70;;;4.43;;
40162;SDS011;25881;47.462;19.304;2023-02-26T03:05:11;7.37;;;4.93;;
40162;SDS011;25881;47.462;19.304;2023-02-26T03:07:39;6.60;;;4.50;;
40162;SDS011;25881;47.462;19.304;2023-02-26T03:12:31;6.70;;;4.57;;
40162;SDS011;25881;47.462;19.304;2023-02-26T03:14:56;7.07;;;5.45;;
40162;SDS011;25881;47.462;19.304;2023-02-26T03:17:26;5.68;;;4.07;;
40162;SDS011;25881;47.462;19.304;2023-02-26T03:25:27;6.85;;;4.72;;
40162;SDS011;25881;47.462;19.304;2023-02-26T03:30:31;7.47;;;4.63;;
40162;SDS011;25881;47.462;19.304;2023-02-26T03:38:29;6.68;;;4.65;;
40162;SDS011;25881;47.462;19.304;2023-02-26T03:40:58;7.72;;;4.68;;
40162;SDS011;25881;47.462;19.304;2023-02-26T03:43:27;7.05;;;4.70;;
40162;SDS011;25881;47.462;19.304;2023-02-26T03:45:55;6.78;;;4.45;;
40162;SDS011;25881;47.462;19.304;2023-02-26T03:48:22;6.70;;;4.75;;
40162;SDS011;25881;47.462;19.304;2023-02-26T03:50:50;6.13;;;4.45;;
40162;SDS011;25881;47.462;19.304;2023-02-26T03:53:19;6.72;;;4.70;;
40162;SDS011;25881;47.462;19.304;2023-02-26T03:55:57;6.22;;;4.60;;
40162;SDS011;25881;47.462;19.304;2023-02-26T03:58:24;6.97;;;4.50;;
40162;SDS011;25881;47.462;19.304;2023-02-26T04:00:51;7.00;;;4.63;;
40162;SDS011;25881;47.462;19.304;2023-02-26T04:03:31;6.75;;;4.80;;
40162;SDS011;25881;47.462;19.304;2023-02-26T04:05:58;8.55;;;5.20;;
40162;SDS011;25881;47.462;19.304;2023-02-26T04:08:23;6.85;;;4.82;;
40162;SDS011;25881;47.462;19.304;2023-02-26T04:10:57;6.95;;;5.15;;
40162;SDS011;25881;47.462;19.304;2023-02-26T04:13:22;6.60;;;4.72;;
40162;SDS011;25881;47.462;19.304;2023-02-26T04:15:48;6.38;;;4.82;;
40162;SDS011;25881;47.462;19.304;2023-02-26T04:18:13;6.57;;;4.75;;
40162;SDS011;25881;47.462;19.304;2023-02-26T04:20:38;9.10;;;6.13;;
40162;SDS011;25881;47.462;19.304;2023-02-26T04:23:03;6.67;;;5.07;;
40162;SDS011;25881;47.462;19.304;2023-02-26T04:25:29;6.93;;;5.00;;
40162;SDS011;25881;47.462;19.304;2023-02-26T04:27:54;6.65;;;4.78;;
40162;SDS011;25881;47.462;19.304;2023-02-26T04:30:20;6.80;;;5.00;;
40162;SDS011;25881;47.462;19.304;2023-02-26T04:32:45;6.90;;;5.17;;
40162;SDS011;25881;47.462;19.304;2023-02-26T04:35:10;7.80;;;5.15;;
40162;SDS011;25881;47.462;19.304;2023-02-26T04:37:36;6.85;;;5.15;;
40162;SDS011;25881;47.462;19.304;2023-02-26T04:40:01;8.23;;;5.28;;
40162;SDS011;25881;47.462;19.304;2023-02-26T04:42:27;7.75;;;5.25;;
40162;SDS011;25881;47.462;19.304;2023-02-26T04:44:53;8.37;;;5.60;;
40162;SDS011;25881;47.462;19.304;2023-02-26T04:47:18;7.82;;;5.75;;
40162;SDS011;25881;47.462;19.304;2023-02-26T04:49:43;6.27;;;4.70;;
40162;SDS011;25881;47.462;19.304;2023-02-26T04:52:08;6.63;;;5.23;;
40162;SDS011;25881;47.462;19.304;2023-02-26T04:54:34;8.73;;;5.57;;
40162;SDS011;25881;47.462;19.304;2023-02-26T04:56:59;7.93;;;5.03;;
40162;SDS011;25881;47.462;19.304;2023-02-26T04:59:24;6.45;;;4.65;;
40162;SDS011;25881;47.462;19.304;2023-02-26T05:01:49;9.20;;;5.97;;
40162;SDS011;25881;47.462;19.304;2023-02-26T05:04:15;6.70;;;5.33;;
40162;SDS011;25881;47.462;19.304;2023-02-26T05:06:40;8.00;;;5.43;;
40162;SDS011;25881;47.462;19.304;2023-02-26T05:09:06;7.93;;;5.47;;
40162;SDS011;25881;47.462;19.304;2023-02-26T05:11:31;8.32;;;5.35;;
40162;SDS011;25881;47.462;19.304;2023-02-26T05:13:56;7.60;;;5.88;;
40162;SDS011;25881;47.462;19.304;2023-02-26T05:16:22;7.10;;;5.40;;
40162;SDS011;25881;47.462;19.304;2023-02-26T05:18:47;7.03;;;5.20;;
40162;SDS011;25881;47.462;19.304;2023-02-26T05:21:12;7.57;;;5.20;;
40162;SDS011;25881;47.462;19.304;2023-02-26T05:23:37;7.40;;;5.15;;
40162;SDS011;25881;47.462;19.304;2023-02-26T05:26:03;8.10;;;5.40;;
40162;SDS011;25881;47.462;19.304;2023-02-26T05:28:28;7.72;;;5.57;;
40162;SDS011;25881;47.462;19.304;2023-02-26T05:30:54;7.60;;;5.75;;
40162;SDS011;25881;47.462;19.304;2023-02-26T05:33:20;7.72;;;5.70;;
40162;SDS011;25881;47.462;19.304;2023-02-26T05:35:45;7.30;;;5.63;;
40162;SDS011;25881;47.462;19.304;2023-02-26T05:38:10;10.00;;;5.90;;
40162;SDS011;25881;47.462;19.304;2023-02-26T05:40:36;9.07;;;5.60;;
40162;SDS011;25881;47.462;19.304;2023-02-26T05:43:01;8.23;;;6.53;;
40162;SDS011;25881;47.462;19.304;2023-02-26T05:45:26;8.80;;;6.93;;
40162;SDS011;25881;47.462;19.304;2023-02-26T05:47:51;9.13;;;6.43;;
40162;SDS011;25881;47.462;19.304;2023-02-26T05:50:17;8.50;;;5.87;;
40162;SDS011;25881;47.462;19.304;2023-02-26T05:52:42;9.07;;;6.35;;
40162;SDS011;25881;47.462;19.304;2023-02-26T05:55:08;12.20;;;6.23;;
40162;SDS011;25881;47.462;19.304;2023-02-26T05:57:33;9.68;;;6.40;;
40162;SDS011;25881;47.462;19.304;2023-02-26T05:59:58;9.60;;;6.17;;
40162;SDS011;25881;47.462;19.304;2023-02-26T06:02:24;8.60;;;6.17;;
40162;SDS011;25881;47.462;19.304;2023-02-26T06:04:49;9.75;;;6.68;;
40162;SDS011;25881;47.462;19.304;2023-02-26T06:07:14;8.20;;;6.10;;
40162;SDS011;25881;47.462;19.304;2023-02-26T06:09:40;8.50;;;6.63;;
40162;SDS011;25881;47.462;19.304;2023-02-26T06:12:05;10.45;;;6.65;;
40162;SDS011;25881;47.462;19.304;2023-02-26T06:14:31;9.98;;;6.80;;
40162;SDS011;25881;47.462;19.304;2023-02-26T06:16:56;8.45;;;6.00;;
40162;SDS011;25881;47.462;19.304;2023-02-26T06:19:21;9.47;;;6.43;;
40162;SDS011;25881;47.462;19.304;2023-02-26T06:21:46;7.25;;;6.13;;
40162;SDS011;25881;47.462;19.304;2023-02-26T06:24:12;9.50;;;6.25;;
40162;SDS011;25881;47.462;19.304;2023-02-26T06:26:37;9.38;;;6.18;;
40162;SDS011;25881;47.462;19.304;2023-02-26T06:29:03;9.63;;;6.07;;
40162;SDS011;25881;47.462;19.304;2023-02-26T06:31:28;8.55;;;6.07;;
40162;SDS011;25881;47.462;19.304;2023-02-26T06:33:53;8.57;;;6.25;;
40162;SDS011;25881;47.462;19.304;2023-02-26T06:36:18;8.87;;;6.10;;
40162;SDS011;25881;47.462;19.304;2023-02-26T06:38:44;9.83;;;6.83;;
40162;SDS011;25881;47.462;19.304;2023-02-26T06:41:09;8.57;;;6.55;;
40162;SDS011;25881;47.462;19.304;2023-02-26T06:43:35;9.68;;;6.93;;
40162;SDS011;25881;47.462;19.304;2023-02-26T06:46:00;10.50;;;6.70;;
40162;SDS011;25881;47.462;19.304;2023-02-26T06:48:26;9.77;;;7.32;;
40162;SDS011;25881;47.462;19.304;2023-02-26T06:50:51;9.73;;;6.13;;
40162;SDS011;25881;47.462;19.304;2023-02-26T06:53:16;9.45;;;6.65;;
40162;SDS011;25881;47.462;19.304;2023-02-26T06:55:43;9.93;;;6.47;;
40162;SDS011;25881;47.462;19.304;2023-02-26T06:58:08;9.70;;;7.13;;
40162;SDS011;25881;47.462;19.304;2023-02-26T07:00:34;9.87;;;6.57;;
40162;SDS011;25881;47.462;19.304;2023-02-26T07:03:00;9.90;;;7.00;;
40162;SDS011;25881;47.462;19.304;2023-02-26T07:05:25;10.73;;;7.33;;
40162;SDS011;25881;47.462;19.304;2023-02-26T07:07:50;9.27;;;6.90;;
40162;SDS011;25881;47.462;19.304;2023-02-26T07:10:15;10.87;;;7.77;;
40162;SDS011;25881;47.462;19.304;2023-02-26T07:12:41;9.70;;;6.65;;
40162;SDS011;25881;47.462;19.304;2023-02-26T07:15:06;8.50;;;6.10;;
40162;SDS011;25881;47.462;19.304;2023-02-26T07:17:32;9.35;;;6.60;;
40162;SDS011;25881;47.462;19.304;2023-02-26T07:19:57;9.73;;;6.80;;
40162;SDS011;25881;47.462;19.304;2023-02-26T07:22:22;9.63;;;7.43;;
40162;SDS011;25881;47.462;19.304;2023-02-26T07:24:48;10.70;;;7.53;;
40162;SDS011;25881;47.462;19.304;2023-02-26T07:27:13;9.43;;;6.80;;
40162;SDS011;25881;47.462;19.304;2023-02-26T07:29:39;12.00;;;7.35;;
40162;SDS011;25881;47.462;19.304;2023-02-26T07:32:04;8.50;;;6.73;;
40162;SDS011;25881;47.462;19.304;2023-02-26T07:34:29;8.00;;;6.30;;
40162;SDS011;25881;47.462;19.304;2023-02-26T07:36:55;11.93;;;7.20;;
40162;SDS011;25881;47.462;19.304;2023-02-26T07:39:20;8.83;;;7.00;;
40162;SDS011;25881;47.462;19.304;2023-02-26T07:41:45;9.02;;;6.50;;
40162;SDS011;25881;47.462;19.304;2023-02-26T07:44:11;13.10;;;8.67;;
40162;SDS011;25881;47.462;19.304;2023-02-26T07:46:36;12.82;;;9.43;;
40162;SDS011;25881;47.462;19.304;2023-02-26T07:49:02;10.77;;;7.63;;
40162;SDS011;25881;47.462;19.304;2023-02-26T07:51:27;12.02;;;8.05;;
40162;SDS011;25881;47.462;19.304;2023-02-26T07:53:52;11.33;;;8.27;;
40162;SDS011;25881;47.462;19.304;2023-02-26T07:56:17;10.57;;;7.53;;
40162;SDS011;25881;47.462;19.304;2023-02-26T07:58:43;11.65;;;8.15;;
40162;SDS011;25881;47.462;19.304;2023-02-26T08:01:08;11.13;;;7.97;;
40162;SDS011;25881;47.462;19.304;2023-02-26T08:03:33;10.87;;;8.20;;
40162;SDS011;25881;47.462;19.304;2023-02-26T08:05:58;10.63;;;7.80;;
40162;SDS011;25881;47.462;19.304;2023-02-26T08:08:24;10.10;;;7.13;;
40162;SDS011;25881;47.462;19.304;2023-02-26T08:10:50;13.50;;;7.18;;
40162;SDS011;25881;47.462;19.304;2023-02-26T08:13:15;9.43;;;7.10;;
40162;SDS011;25881;47.462;19.304;2023-02-26T08:15:40;9.70;;;6.82;;
40162;SDS011;25881;47.462;19.304;2023-02-26T08:18:07;8.82;;;6.32;;
40162;SDS011;25881;47.462;19.304;2023-02-26T08:20:33;11.32;;;7.18;;
40162;SDS011;25881;47.462;19.304;2023-02-26T08:22:58;9.95;;;7.82;;
40162;SDS011;25881;47.462;19.304;2023-02-26T08:25:23;10.47;;;7.87;;
40162;SDS011;25881;47.462;19.304;2023-02-26T08:27:49;10.27;;;6.90;;
40162;SDS011;25881;47.462;19.304;2023-02-26T08:30:14;12.23;;;8.17;;
40162;SDS011;25881;47.462;19.304;2023-02-26T08:32:39;11.55;;;7.80;;
40162;SDS011;25881;47.462;19.304;2023-02-26T08:35:06;10.57;;;7.93;;
40162;SDS011;25881;47.462;19.304;2023-02-26T08:37:31;12.40;;;7.95;;
40162;SDS011;25881;47.462;19.304;2023-02-26T08:39:57;9.90;;;7.03;;
40162;SDS011;25881;47.462;19.304;2023-02-26T08:42:22;9.77;;;6.65;;
40162;SDS011;25881;47.462;19.304;2023-02-26T08:44:47;11.80;;;7.13;;
40162;SDS011;25881;47.462;19.304;2023-02-26T08:47:12;11.48;;;8.18;;
40162;SDS011;25881;47.462;19.304;2023-02-26T08:49:38;9.65;;;6.60;;
40162;SDS011;25881;47.462;19.304;2023-02-26T08:52:03;8.93;;;6.10;;
40162;SDS011;25881;47.462;19.304;2023-02-26T08:54:28;7.30;;;5.30;;
40162;SDS011;25881;47.462;19.304;2023-02-26T08:56:54;7.70;;;4.90;;
40162;SDS011;25881;47.462;19.304;2023-02-26T08:59:21;5.87;;;4.23;;
40162;SDS011;25881;47.462;19.304;2023-02-26T09:01:46;6.40;;;4.70;;
40162;SDS011;25881;47.462;19.304;2023-02-26T09:04:12;5.90;;;3.80;;
40162;SDS011;25881;47.462;19.304;2023-02-26T09:06:37;6.53;;;4.33;;
40162;SDS011;25881;47.462;19.304;2023-02-26T09:09:02;5.57;;;4.10;;
40162;SDS011;25881;47.462;19.304;2023-02-26T09:11:28;5.45;;;4.00;;
40162;SDS011;25881;47.462;19.304;2023-02-26T09:13:54;7.75;;;4.60;;
40162;SDS011;25881;47.462;19.304;2023-02-26T09:16:20;8.40;;;4.38;;
40162;SDS011;25881;47.462;19.304;2023-02-26T09:18:45;11.37;;;6.13;;
40162;SDS011;25881;47.462;19.304;2023-02-26T09:21:10;6.83;;;4.90;;
40162;SDS011;25881;47.462;19.304;2023-02-26T09:23:36;8.85;;;5.80;;
40162;SDS011;25881;47.462;19.304;2023-02-26T09:26:01;9.40;;;6.77;;
40162;SDS011;25881;47.462;19.304;2023-02-26T09:28:26;7.40;;;5.45;;
40162;SDS011;25881;47.462;19.304;2023-02-26T09:30:54;10.68;;;5.30;;
40162;SDS011;25881;47.462;19.304;2023-02-26T09:35:48;8.57;;;6.25;;
40162;SDS011;25881;47.462;19.304;2023-02-26T09:38:14;9.38;;;5.75;;
40162;SDS011;25881;47.462;19.304;2023-02-26T09:40:47;14.43;;;9.60;;
40162;SDS011;25881;47.462;19.304;2023-02-26T09:45:47;14.57;;;6.55;;
40162;SDS011;25881;47.462;19.304;2023-02-26T09:48:14;8.68;;;5.43;;
40162;SDS011;25881;47.462;19.304;2023-02-26T09:53:16;7.45;;;4.60;;
40162;SDS011;25881;47.462;19.304;2023-02-26T09:55:47;7.07;;;4.63;;
40162;SDS011;25881;47.462;19.304;2023-02-26T10:01:03;8.67;;;6.27;;
40162;SDS011;25881;47.462;19.304;2023-02-26T10:03:34;9.48;;;6.03;;
40162;SDS011;25881;47.462;19.304;2023-02-26T10:08:37;8.65;;;5.82;;
40162;SDS011;25881;47.462;19.304;2023-02-26T10:11:11;9.43;;;6.13;;
40162;SDS011;25881;47.462;19.304;2023-02-26T10:13:49;10.07;;;7.00;;
40162;SDS011;25881;47.462;19.304;2023-02-26T10:16:17;11.77;;;8.43;;
40162;SDS011;25881;47.462;19.304;2023-02-26T10:18:48;11.85;;;7.43;;
40162;SDS011;25881;47.462;19.304;2023-02-26T10:21:21;20.83;;;11.68;;
40162;SDS011;25881;47.462;19.304;2023-02-26T10:23:51;12.68;;;9.50;;
40162;SDS011;25881;47.462;19.304;2023-02-26T10:26:24;12.15;;;9.25;;
40162;SDS011;25881;47.462;19.304;2023-02-26T10:28:53;11.90;;;9.32;;
40162;SDS011;25881;47.462;19.304;2023-02-26T10:31:26;16.38;;;10.00;;
40162;SDS011;25881;47.462;19.304;2023-02-26T10:36:47;14.30;;;10.18;;
40162;SDS011;25881;47.462;19.304;2023-02-26T10:39:28;10.83;;;8.03;;
40162;SDS011;25881;47.462;19.304;2023-02-26T10:41:55;10.60;;;8.52;;
40162;SDS011;25881;47.462;19.304;2023-02-26T10:44:26;10.05;;;8.00;;
40162;SDS011;25881;47.462;19.304;2023-02-26T10:49:26;12.30;;;9.47;;
40162;SDS011;25881;47.462;19.304;2023-02-26T10:51:55;12.10;;;9.93;;
40162;SDS011;25881;47.462;19.304;2023-02-26T10:54:23;12.75;;;10.68;;
40162;SDS011;25881;47.462;19.304;2023-02-26T10:56:49;16.65;;;11.52;;
40162;SDS011;25881;47.462;19.304;2023-02-26T10:59:15;18.80;;;12.80;;
40162;SDS011;25881;47.462;19.304;2023-02-26T11:01:40;15.52;;;12.43;;
40162;SDS011;25881;47.462;19.304;2023-02-26T11:04:10;14.48;;;10.75;;
40162;SDS011;25881;47.462;19.304;2023-02-26T11:09:13;10.45;;;8.05;;
40162;SDS011;25881;47.462;19.304;2023-02-26T11:14:08;11.52;;;8.93;;
40162;SDS011;25881;47.462;19.304;2023-02-26T11:16:34;11.48;;;8.75;;
40162;SDS011;25881;47.462;19.304;2023-02-26T11:19:01;10.63;;;8.65;;
40162;SDS011;25881;47.462;19.304;2023-02-26T11:21:33;11.85;;;9.48;;
40162;SDS011;25881;47.462;19.304;2023-02-26T11:24:08;12.55;;;9.65;;
40162;SDS011;25881;47.462;19.304;2023-02-26T11:26:36;11.82;;;8.68;;
40162;SDS011;25881;47.462;19.304;2023-02-26T11:29:03;11.15;;;9.43;;
40162;SDS011;25881;47.462;19.304;2023-02-26T11:31:31;11.93;;;9.75;;
40162;SDS011;25881;47.462;19.304;2023-02-26T11:34:03;11.63;;;10.00;;
40162;SDS011;25881;47.462;19.304;2023-02-26T11:36:30;10.82;;;9.20;;
40162;SDS011;25881;47.462;19.304;2023-02-26T11:39:17;15.48;;;10.20;;
40162;SDS011;25881;47.462;19.304;2023-02-26T11:41:41;13.45;;;10.60;;
40162;SDS011;25881;47.462;19.304;2023-02-26T11:44:15;13.07;;;10.60;;
40162;SDS011;25881;47.462;19.304;2023-02-26T11:46:56;13.80;;;10.10;;
40162;SDS011;25881;47.462;19.304;2023-02-26T11:49:23;17.13;;;11.80;;
40162;SDS011;25881;47.462;19.304;2023-02-26T11:52:00;16.30;;;10.82;;
40162;SDS011;25881;47.462;19.304;2023-02-26T11:54:27;14.45;;;10.95;;
40162;SDS011;25881;47.462;19.304;2023-02-26T11:56:59;22.52;;;14.30;;
40162;SDS011;25881;47.462;19.304;2023-02-26T11:59:25;17.95;;;11.57;;
40162;SDS011;25881;47.462;19.304;2023-02-26T12:01:51;13.35;;;10.18;;
40162;SDS011;25881;47.462;19.304;2023-02-26T12:04:18;18.27;;;12.95;;
40162;SDS011;25881;47.462;19.304;2023-02-26T12:06:45;41.28;;;22.83;;
40162;SDS011;25881;47.462;19.304;2023-02-26T12:09:11;20.48;;;13.20;;
40162;SDS011;25881;47.462;19.304;2023-02-26T12:11:43;14.82;;;10.65;;
40162;SDS011;25881;47.462;19.304;2023-02-26T12:17:14;12.45;;;8.75;;
40162;SDS011;25881;47.462;19.304;2023-02-26T12:36:25;28.90;;;14.13;;
40162;SDS011;25881;47.462;19.304;2023-02-26T12:39:06;24.52;;;12.27;;
40162;SDS011;25881;47.462;19.304;2023-02-26T12:41:58;34.60;;;15.73;;
40162;SDS011;25881;47.462;19.304;2023-02-26T12:54:32;19.00;;;12.75;;
40162;SDS011;25881;47.462;19.304;2023-02-26T13:07:10;10.85;;;6.40;;
40162;SDS011;25881;47.462;19.304;2023-02-26T13:17:33;7.88;;;4.95;;
40162;SDS011;25881;47.462;19.304;2023-02-26T13:20:03;9.75;;;5.40;;
40162;SDS011;25881;47.462;19.304;2023-02-26T13:22:46;10.30;;;5.88;;
40162;SDS011;25881;47.462;19.304;2023-02-26T13:25:35;9.70;;;6.07;;
40162;SDS011;25881;47.462;19.304;2023-02-26T13:27:58;8.02;;;5.45;;
40162;SDS011;25881;47.462;19.304;2023-02-26T13:30:30;12.10;;;6.07;;
40162;SDS011;25881;47.462;19.304;2023-02-26T13:32:58;8.75;;;6.38;;
40162;SDS011;25881;47.462;19.304;2023-02-26T13:35:32;15.20;;;7.03;;
40162;SDS011;25881;47.462;19.304;2023-02-26T13:37:59;10.15;;;6.28;;
40162;SDS011;25881;47.462;19.304;2023-02-26T13:45:35;12.15;;;8.85;;
40162;SDS011;25881;47.462;19.304;2023-02-26T13:50:40;11.15;;;7.13;;
40162;SDS011;25881;47.462;19.304;2023-02-26T13:55:51;14.77;;;8.95;;
40162;SDS011;25881;47.462;19.304;2023-02-26T13:58:33;14.35;;;8.70;;
40162;SDS011;25881;47.462;19.304;2023-02-26T14:01:03;12.02;;;8.43;;
40162;SDS011;25881;47.462;19.304;2023-02-26T14:03:30;13.52;;;7.93;;
40162;SDS011;25881;47.462;19.304;2023-02-26T14:08:42;17.33;;;10.10;;
40162;SDS011;25881;47.462;19.304;2023-02-26T14:11:24;20.88;;;12.05;;
40162;SDS011;25881;47.462;19.304;2023-02-26T14:16:27;18.88;;;9.15;;
40162;SDS011;25881;47.462;19.304;2023-02-26T14:19:02;17.85;;;9.15;;
40162;SDS011;25881;47.462;19.304;2023-02-26T14:21:35;13.50;;;9.05;;
40162;SDS011;25881;47.462;19.304;2023-02-26T14:24:05;11.88;;;7.68;;
40162;SDS011;25881;47.462;19.304;2023-02-26T14:26:32;13.98;;;8.82;;
40162;SDS011;25881;47.462;19.304;2023-02-26T14:34:29;12.52;;;8.48;;
40162;SDS011;25881;47.462;19.304;2023-02-26T14:36:56;13.88;;;7.90;;
40162;SDS011;25881;47.462;19.304;2023-02-26T14:39:44;12.57;;;8.20;;
40162;SDS011;25881;47.462;19.304;2023-02-26T14:42:16;12.15;;;8.63;;
40162;SDS011;25881;47.462;19.304;2023-02-26T14:44:44;19.00;;;10.18;;
40162;SDS011;25881;47.462;19.304;2023-02-26T14:47:10;11.57;;;8.43;;
40162;SDS011;25881;47.462;19.304;2023-02-26T14:49:37;13.70;;;9.57;;
40162;SDS011;25881;47.462;19.304;2023-02-26T14:54:35;15.27;;;8.77;;
40162;SDS011;25881;47.462;19.304;2023-02-26T15:10:03;13.80;;;8.52;;
40162;SDS011;25881;47.462;19.304;2023-02-26T15:12:34;11.02;;;7.30;;
40162;SDS011;25881;47.462;19.304;2023-02-26T15:25:22;10.45;;;6.47;;
40162;SDS011;25881;47.462;19.304;2023-02-26T15:27:49;17.52;;;10.15;;
40162;SDS011;25881;47.462;19.304;2023-02-26T15:30:15;13.90;;;7.30;;
40162;SDS011;25881;47.462;19.304;2023-02-26T15:32:41;10.77;;;6.82;;
40162;SDS011;25881;47.462;19.304;2023-02-26T15:35:18;10.10;;;6.88;;
40162;SDS011;25881;47.462;19.304;2023-02-26T15:37:48;11.65;;;7.13;;
40162;SDS011;25881;47.462;19.304;2023-02-26T15:40:14;15.65;;;9.05;;
40162;SDS011;25881;47.462;19.304;2023-02-26T15:42:41;18.38;;;10.75;;
40162;SDS011;25881;47.462;19.304;2023-02-26T15:45:53;19.67;;;12.10;;
40162;SDS011;25881;47.462;19.304;2023-02-26T15:48:03;11.68;;;8.20;;
40162;SDS011;25881;47.462;19.304;2023-02-26T15:50:30;10.32;;;7.18;;
40162;SDS011;25881;47.462;19.304;2023-02-26T15:52:59;10.57;;;6.82;;
40162;SDS011;25881;47.462;19.304;2023-02-26T15:55:27;11.40;;;6.65;;
40162;SDS011;25881;47.462;19.304;2023-02-26T15:57:55;11.70;;;7.22;;
40162;SDS011;25881;47.462;19.304;2023-02-26T16:00:21;10.02;;;6.88;;
40162;SDS011;25881;47.462;19.304;2023-02-26T16:02:50;9.05;;;6.78;;
40162;SDS011;25881;47.462;19.304;2023-02-26T16:05:17;11.82;;;7.20;;
40162;SDS011;25881;47.462;19.304;2023-02-26T16:07:43;10.38;;;6.72;;
40162;SDS011;25881;47.462;19.304;2023-02-26T16:10:26;10.55;;;6.60;;
40162;SDS011;25881;47.462;19.304;2023-02-26T16:12:52;9.18;;;5.90;;
40162;SDS011;25881;47.462;19.304;2023-02-26T16:15:24;13.13;;;6.10;;
40162;SDS011;25881;47.462;19.304;2023-02-26T16:17:50;8.18;;;5.60;;
40162;SDS011;25881;47.462;19.304;2023-02-26T16:20:18;9.00;;;6.25;;
40162;SDS011;25881;47.462;19.304;2023-02-26T16:22:48;10.10;;;6.05;;
40162;SDS011;25881;47.462;19.304;2023-02-26T16:25:16;9.07;;;5.97;;
40162;SDS011;25881;47.462;19.304;2023-02-26T16:27:43;9.18;;;5.57;;
40162;SDS011;25881;47.462;19.304;2023-02-26T16:30:15;8.40;;;5.47;;
40162;SDS011;25881;47.462;19.304;2023-02-26T16:32:42;9.55;;;6.40;;
40162;SDS011;25881;47.462;19.304;2023-02-26T16:35:15;11.85;;;7.03;;
40162;SDS011;25881;47.462;19.304;2023-02-26T16:37:44;34.45;;;28.58;;
40162;SDS011;25881;47.462;19.304;2023-02-26T16:45:19;11.43;;;7.57;;
40162;SDS011;25881;47.462;19.304;2023-02-26T16:47:47;13.30;;;8.07;;
40162;SDS011;25881;47.462;19.304;2023-02-26T16:50:14;11.27;;;7.90;;
40162;SDS011;25881;47.462;19.304;2023-02-26T16:52:40;12.93;;;8.40;;
40162;SDS011;25881;47.462;19.304;2023-02-26T16:55:09;10.70;;;7.63;;
40162;SDS011;25881;47.462;19.304;2023-02-26T16:57:42;14.25;;;8.80;;
40162;SDS011;25881;47.462;19.304;2023-02-26T17:00:16;9.88;;;6.30;;
40162;SDS011;25881;47.462;19.304;2023-02-26T17:02:41;11.52;;;7.85;;
40162;SDS011;25881;47.462;19.304;2023-02-26T17:08:08;14.57;;;7.95;;
40162;SDS011;25881;47.462;19.304;2023-02-26T17:10:37;12.13;;;8.40;;
40162;SDS011;25881;47.462;19.304;2023-02-26T17:13:12;13.57;;;7.80;;
40162;SDS011;25881;47.462;19.304;2023-02-26T17:15:38;12.95;;;8.45;;
40162;SDS011;25881;47.462;19.304;2023-02-26T17:18:07;10.57;;;7.70;;
40162;SDS011;25881;47.462;19.304;2023-02-26T17:20:33;12.52;;;8.10;;
40162;SDS011;25881;47.462;19.304;2023-02-26T17:23:00;12.32;;;7.47;;
40162;SDS011;25881;47.462;19.304;2023-02-26T17:25:26;10.43;;;6.80;;
40162;SDS011;25881;47.462;19.304;2023-02-26T17:27:58;10.60;;;6.47;;
40162;SDS011;25881;47.462;19.304;2023-02-26T17:30:26;10.30;;;6.88;;
40162;SDS011;25881;47.462;19.304;2023-02-26T17:32:57;11.00;;;7.13;;
40162;SDS011;25881;47.462;19.304;2023-02-26T17:35:22;13.07;;;7.47;;
40162;SDS011;25881;47.462;19.304;2023-02-26T17:37:53;12.30;;;6.75;;
40162;SDS011;25881;47.462;19.304;2023-02-26T17:40:23;11.10;;;7.40;;
40162;SDS011;25881;47.462;19.304;2023-02-26T17:42:49;15.85;;;9.18;;